createdAt,value
2019-04-28T00:01:36.896Z,16.60
2019-04-28T00:04:08.858Z,16.63
2019-04-28T00:06:42.256Z,16.60
2019-04-28T00:09:15.124Z,16.66
2019-04-28T00:11:46.712Z,16.59
2019-04-28T00:14:21.916Z,16.47
2019-04-28T00:16:53.950Z,16.43
2019-04-28T00:19:26.771Z,16.50
2019-04-28T00:22:03.200Z,16.34
2019-04-28T00:24:41.528Z,16.31
2019-04-28T00:27:13.463Z,16.30
2019-04-28T00:29:46.301Z,16.24
2019-04-28T00:32:18.494Z,16.21
2019-04-28T00:34:51.161Z,16.18
2019-04-28T00:37:24.385Z,16.20
2019-04-28T00:39:56.127Z,16.21
2019-04-28T00:42:27.714Z,16.18
2019-04-28T00:44:59.234Z,16.24
2019-04-28T00:47:31.293Z,16.26
2019-04-28T00:50:03.158Z,16.27
2019-04-28T00:52:35.020Z,16.21
2019-04-28T00:55:07.344Z,16.16
2019-04-28T00:57:40.959Z,16.18
2019-04-28T01:00:14.352Z,16.22
2019-04-28T01:02:46.188Z,16.28
2019-04-28T01:05:18.023Z,16.31
2019-04-28T01:07:51.516Z,16.32
2019-04-28T01:10:24.298Z,16.38
2019-04-28T01:12:56.058Z,16.39
2019-04-28T01:15:29.897Z,16.33
2019-04-28T01:18:06.426Z,16.29
2019-04-28T01:20:39.670Z,16.30
2019-04-28T01:23:11.176Z,16.36
2019-04-28T01:25:42.850Z,16.37
2019-04-28T01:28:16.857Z,16.32
2019-04-28T01:30:53.219Z,16.26
2019-04-28T01:33:26.351Z,16.19
2019-04-28T01:35:57.946Z,16.22
2019-04-28T01:38:30.271Z,16.14
2019-04-28T01:41:02.247Z,16.12
2019-04-28T01:43:34.026Z,16.12
2019-04-28T01:46:05.754Z,16.09
2019-04-28T01:48:37.537Z,16.04
2019-04-28T01:51:09.563Z,15.97
2019-04-28T01:53:41.329Z,15.88
2019-04-28T01:56:13.281Z,15.96
2019-04-28T01:58:45.643Z,15.89
2019-04-28T02:01:17.406Z,15.84
2019-04-28T02:03:50.222Z,15.85
2019-04-28T02:06:22.358Z,15.78
2019-04-28T02:09:00.876Z,15.82
2019-04-28T02:11:34.115Z,15.70
2019-04-28T02:14:06.132Z,15.70
2019-04-28T02:16:37.581Z,15.64
2019-04-28T02:19:10.721Z,15.66
2019-04-28T02:21:44.686Z,15.68
2019-04-28T02:24:30.862Z,15.69
2019-04-28T02:27:03.725Z,15.78
2019-04-28T02:29:35.571Z,15.95
2019-04-28T02:32:10.374Z,16.03
2019-04-28T02:34:44.072Z,16.03
2019-04-28T02:37:15.623Z,16.03
2019-04-28T02:39:47.478Z,15.96
2019-04-28T02:42:20.799Z,15.96
2019-04-28T02:44:52.644Z,15.90
2019-04-28T02:47:24.510Z,15.86
2019-04-28T02:50:14.405Z,15.75
2019-04-28T02:52:55.193Z,15.69
2019-04-28T02:55:27.321Z,15.62
2019-04-28T02:58:01.443Z,15.61
2019-04-28T03:00:32.135Z,15.60
2019-04-28T03:03:03.736Z,15.55
2019-04-28T03:05:35.490Z,15.52
2019-04-28T03:08:07.456Z,15.51
2019-04-28T03:10:41.327Z,15.52
2019-04-28T03:13:14.621Z,15.50
2019-04-28T03:15:46.654Z,15.45
2019-04-28T03:18:18.274Z,15.38
2019-04-28T03:20:51.572Z,15.35
2019-04-28T03:23:23.352Z,15.30
2019-04-28T03:25:57.693Z,15.22
2019-04-28T03:28:37.007Z,15.08
2019-04-28T03:31:47.768Z,15.08
2019-04-28T03:33:55.131Z,15.10
2019-04-28T03:36:23.966Z,15.08
2019-04-28T03:38:55.661Z,15.02
2019-04-28T03:41:27.668Z,15.09
2019-04-28T03:44:00.524Z,15.20
2019-04-28T03:46:34.237Z,15.32
2019-04-28T03:49:05.772Z,15.49
2019-04-28T03:51:40.791Z,15.62
2019-04-28T03:54:12.220Z,15.84
2019-04-28T03:56:45.079Z,15.93
2019-04-28T03:59:16.949Z,15.93
2019-04-28T04:01:56.537Z,15.89
2019-04-28T04:04:21.996Z,16.14
2019-04-28T04:06:53.875Z,16.19
2019-04-28T04:09:27.357Z,16.27
2019-04-28T04:12:21.280Z,16.42
2019-04-28T04:14:54.493Z,16.34
2019-04-28T04:17:33.409Z,16.31
2019-04-28T04:20:05.438Z,16.56
2019-04-28T04:22:36.974Z,16.81
2019-04-28T04:25:12.274Z,16.75
2019-04-28T04:27:42.292Z,16.71
2019-04-28T04:30:15.626Z,16.75
2019-04-28T04:32:47.498Z,16.78
2019-04-28T04:35:21.442Z,16.93
2019-04-28T04:37:53.162Z,17.13
2019-04-28T04:40:24.774Z,17.30
2019-04-28T04:42:56.494Z,17.48
2019-04-28T04:45:30.464Z,17.67
2019-04-28T04:48:02.768Z,17.77
2019-04-28T04:50:34.723Z,18.03
2019-04-28T04:53:06.290Z,18.17
2019-04-28T04:55:40.789Z,18.40
2019-04-28T04:58:14.435Z,18.43
2019-04-28T05:00:56.870Z,18.00
2019-04-28T05:03:31.329Z,17.71
2019-04-28T05:06:04.938Z,17.68
2019-04-28T05:08:36.705Z,17.67
2019-04-28T05:11:11.299Z,17.64
2019-04-28T05:13:44.845Z,17.61
2019-04-28T05:16:16.659Z,17.68
2019-04-28T05:18:49.915Z,17.65
2019-04-28T05:21:21.844Z,17.74
2019-04-28T05:23:54.941Z,17.59
2019-04-28T05:26:26.689Z,17.69
2019-04-28T05:28:59.716Z,17.56
2019-04-28T05:31:32.456Z,17.43
2019-04-28T05:34:08.151Z,17.20
2019-04-28T05:36:43.955Z,17.14
2019-04-28T05:39:12.725Z,17.16
2019-04-28T05:41:45.455Z,17.04
2019-04-28T05:44:17.317Z,16.85
2019-04-28T05:46:50.652Z,16.85
2019-04-28T05:49:43.397Z,16.78
2019-04-28T05:52:33.675Z,16.88
2019-04-28T05:55:11.861Z,16.71
2019-04-28T05:57:45.350Z,16.71
2019-04-28T06:00:19.878Z,16.02
2019-04-28T06:02:56.531Z,16.61
2019-04-28T06:05:30.130Z,16.70
2019-04-28T06:08:17.633Z,16.57
2019-04-28T06:10:50.168Z,16.48
2019-04-28T06:13:22.442Z,16.42
2019-04-28T06:15:56.203Z,16.45
2019-04-28T06:18:28.261Z,16.49
2019-04-28T06:21:00.066Z,16.53
2019-04-28T06:23:32.060Z,16.40
2019-04-28T06:26:03.987Z,16.49
2019-04-28T06:28:35.569Z,16.55
2019-04-28T06:31:07.416Z,16.53
2019-04-28T06:33:38.912Z,16.46
2019-04-28T06:36:10.677Z,16.39
2019-04-28T06:38:42.277Z,16.34
2019-04-28T06:41:13.992Z,16.34
2019-04-28T06:43:45.637Z,16.14
2019-04-28T06:46:17.662Z,15.97
2019-04-28T06:48:49.106Z,15.88
2019-04-28T06:51:20.991Z,15.80
2019-04-28T06:53:53.094Z,15.69
2019-04-28T06:56:29.303Z,15.54
2019-04-28T06:59:04.193Z,15.48
2019-04-28T07:01:36.049Z,15.42
2019-04-28T07:04:08.267Z,15.36
2019-04-28T07:06:40.247Z,15.34
2019-04-28T07:09:12.371Z,15.41
2019-04-28T07:11:44.048Z,15.49
2019-04-28T07:14:17.782Z,15.60
2019-04-28T07:16:51.687Z,15.86
2019-04-28T07:19:24.196Z,16.01
2019-04-28T07:22:03.262Z,16.15
2019-04-28T07:24:36.198Z,16.41
2019-04-28T07:27:13.499Z,16.73
2019-04-28T07:29:45.566Z,16.90
2019-04-28T07:32:24.527Z,17.28
2019-04-28T07:35:00.109Z,17.46
2019-04-28T07:37:33.405Z,17.76
2019-04-28T07:40:07.928Z,18.07
2019-04-28T07:42:43.903Z,18.47
2019-04-28T07:45:15.063Z,18.73
2019-04-28T07:47:48.315Z,18.87
2019-04-28T07:50:21.530Z,18.88
2019-04-28T07:52:59.370Z,19.09
2019-04-28T07:55:31.187Z,19.35
2019-04-28T07:58:05.132Z,19.49
2019-04-28T08:00:38.948Z,19.54
2019-04-28T08:03:15.730Z,19.75
2019-04-28T08:05:47.505Z,19.81
2019-04-28T08:08:20.796Z,19.80
2019-04-28T08:10:54.645Z,19.93
2019-04-28T08:13:30.157Z,20.13
2019-04-28T08:16:02.048Z,20.20
2019-04-28T08:18:35.950Z,20.48
2019-04-28T08:21:07.540Z,20.34
2019-04-28T08:23:47.366Z,20.37
2019-04-28T08:26:19.316Z,20.42
2019-04-28T08:28:53.593Z,20.68
2019-04-28T08:31:29.846Z,20.90
2019-04-28T08:34:05.958Z,20.83
2019-04-28T08:36:40.105Z,21.28
2019-04-28T08:39:13.458Z,21.20
2019-04-28T08:41:45.152Z,21.13
2019-04-28T08:44:17.408Z,21.09
2019-04-28T08:46:49.110Z,21.50
2019-04-28T08:49:21.533Z,21.68
2019-04-28T08:51:55.950Z,21.87
2019-04-28T08:54:31.164Z,21.94
2019-04-28T08:57:04.981Z,22.11
2019-04-28T08:59:43.055Z,22.47
2019-04-28T09:02:15.518Z,22.27
2019-04-28T09:04:51.519Z,22.05
2019-04-28T09:07:24.240Z,22.30
2019-04-28T09:09:56.394Z,22.94
2019-04-28T09:12:28.293Z,23.10
2019-04-28T09:15:00.081Z,23.26
2019-04-28T09:17:33.669Z,23.32
2019-04-28T09:20:09.413Z,23.39
2019-04-28T09:22:41.051Z,23.65
2019-04-28T09:25:15.983Z,23.56
2019-04-28T09:27:49.387Z,23.37
2019-04-28T09:30:22.655Z,23.18
2019-04-28T09:32:55.248Z,23.32
2019-04-28T09:35:27.224Z,23.56
2019-04-28T09:37:58.989Z,23.46
2019-04-28T09:40:32.485Z,23.33
2019-04-28T09:43:18.014Z,23.11
2019-04-28T09:45:51.406Z,22.71
2019-04-28T09:48:23.316Z,22.72
2019-04-28T09:50:56.739Z,22.61
2019-04-28T09:53:28.959Z,22.56
2019-04-28T09:56:01.875Z,22.38
2019-04-28T09:58:33.739Z,22.45
2019-04-28T10:01:05.697Z,22.46
2019-04-28T10:03:37.877Z,22.62
2019-04-28T10:06:11.049Z,22.53
2019-04-28T10:08:43.451Z,22.58
2019-04-28T10:11:15.253Z,22.65
2019-04-28T10:13:50.009Z,22.78
2019-04-28T10:16:21.736Z,22.88
2019-04-28T10:18:53.423Z,22.84
2019-04-28T10:21:28.002Z,22.68
2019-04-28T10:24:03.307Z,22.67
2019-04-28T10:26:37.261Z,22.68
2019-04-28T10:29:10.523Z,22.50
2019-04-28T10:31:43.298Z,22.42
2019-04-28T10:34:16.261Z,22.23
2019-04-28T10:36:49.721Z,22.35
2019-04-28T10:39:32.042Z,22.29
2019-04-28T10:42:04.863Z,22.32
2019-04-28T10:44:39.243Z,22.43
2019-04-28T10:47:11.169Z,22.59
2019-04-28T10:49:43.169Z,22.74
2019-04-28T10:52:16.628Z,22.90
2019-04-28T10:54:52.625Z,23.20
2019-04-28T10:57:24.509Z,23.70
2019-04-28T10:59:57.458Z,24.12
2019-04-28T11:02:29.609Z,24.66
2019-04-28T11:05:08.738Z,24.80
2019-04-28T11:07:36.880Z,24.85
2019-04-28T11:10:10.336Z,24.85
2019-04-28T11:12:42.544Z,24.81
2019-04-28T11:15:18.353Z,24.59
2019-04-28T11:17:50.022Z,24.32
2019-04-28T11:20:25.082Z,24.27
2019-04-28T11:22:57.776Z,23.59
2019-04-28T11:25:30.537Z,23.26
2019-04-28T11:28:02.216Z,22.96
2019-04-28T11:30:36.494Z,22.69
2019-04-28T11:33:19.670Z,22.48
2019-04-28T11:35:51.807Z,22.48
2019-04-28T11:38:23.569Z,22.84
2019-04-28T11:40:55.383Z,23.15
2019-04-28T11:43:27.168Z,23.30
2019-04-28T11:45:58.860Z,23.46
2019-04-28T11:48:31.783Z,23.58
2019-04-28T11:51:03.965Z,23.78
2019-04-28T11:53:37.305Z,24.09
2019-04-28T11:56:09.401Z,23.87
2019-04-28T11:58:41.044Z,24.01
2019-04-28T12:01:13.699Z,23.98
2019-04-28T12:03:45.779Z,23.84
2019-04-28T12:06:17.218Z,23.95
2019-04-28T12:08:51.891Z,23.98
2019-04-28T12:11:25.349Z,23.66
2019-04-28T12:14:06.816Z,23.55
2019-04-28T12:16:55.311Z,23.42
2019-04-28T12:19:29.026Z,23.50
2019-04-28T12:22:00.712Z,23.28
2019-04-28T12:24:34.213Z,23.42
2019-04-28T12:27:08.703Z,23.14
2019-04-28T12:29:40.250Z,23.25
2019-04-28T12:32:12.055Z,22.42
2019-04-28T12:34:43.943Z,22.16
2019-04-28T12:37:16.920Z,22.17
2019-04-28T12:39:48.577Z,22.36
2019-04-28T12:42:21.186Z,22.29
2019-04-28T12:44:53.091Z,21.97
2019-04-28T12:47:24.814Z,21.96
2019-04-28T12:49:58.006Z,21.62
2019-04-28T12:52:29.513Z,21.42
2019-04-28T12:55:01.342Z,21.30
2019-04-28T12:57:32.921Z,21.43
2019-04-28T13:00:22.994Z,21.21
2019-04-28T13:03:15.115Z,20.86
2019-04-28T13:06:00.883Z,20.81
2019-04-28T13:08:22.511Z,20.91
2019-04-28T13:10:54.662Z,20.92
2019-04-28T13:13:27.471Z,21.02
2019-04-28T13:15:59.726Z,21.21
2019-04-28T13:18:31.935Z,21.17
2019-04-28T13:21:03.694Z,21.05
2019-04-28T13:23:36.562Z,20.99
2019-04-28T13:26:11.142Z,20.96
2019-04-28T13:28:43.986Z,20.79
2019-04-28T13:31:15.837Z,20.99
2019-04-28T13:33:56.342Z,20.61
2019-04-28T13:36:21.223Z,20.61
2019-04-28T13:38:53.969Z,20.65
2019-04-28T13:41:25.586Z,20.66
2019-04-28T13:43:57.191Z,20.64
2019-04-28T13:46:29.919Z,20.70
2019-04-28T13:49:04.178Z,20.84
2019-04-28T13:51:34.918Z,20.83
2019-04-28T13:54:07.766Z,20.87
2019-04-28T13:56:39.490Z,20.97
2019-04-28T13:59:12.729Z,20.78
2019-04-28T14:02:04.488Z,21.06
2019-04-28T14:04:40.647Z,21.15
2019-04-28T14:07:12.430Z,20.91
2019-04-28T14:09:44.190Z,21.03
2019-04-28T14:12:16.133Z,21.12
2019-04-28T14:14:48.212Z,21.04
2019-04-28T14:17:19.738Z,21.11
2019-04-28T14:19:51.606Z,21.34
2019-04-28T14:22:23.386Z,21.13
2019-04-28T14:24:55.240Z,21.25
2019-04-28T14:27:28.240Z,21.14
2019-04-28T14:29:59.974Z,21.07
2019-04-28T14:32:31.810Z,21.19
2019-04-28T14:35:05.135Z,21.18
2019-04-28T14:37:36.758Z,21.04
2019-04-28T14:40:08.651Z,21.27
2019-04-28T14:42:40.243Z,21.25
2019-04-28T14:45:12.506Z,21.26
2019-04-28T14:47:44.701Z,21.61
2019-04-28T14:50:17.138Z,22.17
2019-04-28T14:52:49.709Z,22.09
2019-04-28T14:55:21.427Z,22.72
2019-04-28T14:57:54.154Z,23.63
2019-04-28T15:00:33.463Z,25.08
2019-04-28T15:03:06.977Z,25.15
2019-04-28T15:05:40.195Z,25.20
2019-04-28T15:08:16.667Z,25.80
2019-04-28T15:10:52.907Z,25.19
2019-04-28T15:13:25.510Z,24.09
2019-04-28T15:15:57.416Z,23.33
2019-04-28T15:18:29.263Z,22.59
2019-04-28T15:21:02.609Z,22.65
2019-04-28T15:23:44.667Z,22.24
2019-04-28T15:26:22.309Z,21.89
2019-04-28T15:28:56.652Z,21.69
2019-04-28T15:31:28.377Z,21.74
2019-04-28T15:34:00.608Z,21.58
2019-04-28T15:36:34.191Z,21.73
2019-04-28T15:39:09.503Z,21.58
2019-04-28T15:41:44.017Z,21.32
2019-04-28T15:44:19.247Z,21.23
2019-04-28T15:46:51.554Z,21.07
2019-04-28T15:49:23.293Z,20.93
2019-04-28T15:51:55.072Z,20.77
2019-04-28T15:54:28.594Z,20.73
2019-04-28T15:57:00.923Z,20.68
2019-04-28T15:59:32.732Z,20.64
2019-04-28T16:02:04.478Z,20.57
2019-04-28T16:04:39.588Z,20.33
2019-04-28T16:07:24.362Z,20.19
2019-04-28T16:09:45.564Z,20.10
2019-04-28T16:12:17.387Z,20.02
2019-04-28T16:14:49.246Z,20.00
2019-04-28T16:17:23.524Z,19.91
2019-04-28T16:19:55.364Z,19.80
2019-04-28T16:22:27.016Z,19.65
2019-04-28T16:24:58.697Z,19.61
2019-04-28T16:27:30.569Z,19.51
2019-04-28T16:30:08.840Z,19.42
2019-04-28T16:32:40.873Z,19.52
2019-04-28T16:35:14.311Z,19.47
2019-04-28T16:37:46.713Z,19.32
2019-04-28T16:40:18.864Z,19.24
2019-04-28T16:42:50.909Z,19.12
2019-04-28T16:45:22.700Z,19.06
2019-04-28T16:47:54.467Z,18.95
2019-04-28T16:50:26.315Z,18.84
2019-04-28T16:52:59.003Z,18.77
2019-04-28T16:55:32.797Z,18.74
2019-04-28T16:58:24.761Z,18.74
2019-04-28T17:00:58.289Z,18.60
2019-04-28T17:03:49.992Z,18.58
2019-04-28T17:06:21.962Z,18.39
2019-04-28T17:08:53.523Z,18.30
2019-04-28T17:11:25.844Z,18.12
2019-04-28T17:13:57.498Z,18.04
2019-04-28T17:16:29.524Z,17.92
2019-04-28T17:19:02.397Z,17.92
2019-04-28T17:21:35.748Z,17.85
2019-04-28T17:24:07.371Z,17.80
2019-04-28T17:26:39.320Z,17.70
2019-04-28T17:29:11.137Z,17.68
2019-04-28T17:31:44.733Z,17.63
2019-04-28T17:34:16.348Z,17.67
2019-04-28T17:36:48.141Z,17.75
2019-04-28T17:39:25.944Z,17.78
2019-04-28T17:41:57.505Z,17.81
2019-04-28T17:44:29.358Z,17.77
2019-04-28T17:47:00.893Z,17.79
2019-04-28T17:49:34.581Z,17.74
2019-04-28T17:52:06.763Z,17.68
2019-04-28T17:54:38.667Z,17.69
2019-04-28T17:57:11.871Z,17.76
2019-04-28T17:59:45.286Z,17.76
2019-04-28T18:02:36.371Z,17.73
2019-04-28T18:05:12.633Z,17.79
2019-04-28T18:07:45.131Z,17.95
2019-04-28T18:10:17.168Z,18.03
2019-04-28T18:12:59.898Z,18.13
2019-04-28T18:15:24.203Z,18.08
2019-04-28T18:17:57.618Z,18.09
2019-04-28T18:20:30.956Z,18.15
2019-04-28T18:23:04.214Z,18.25
2019-04-28T18:25:36.525Z,18.27
2019-04-28T18:28:08.023Z,18.29
2019-04-28T18:30:41.218Z,18.27
2019-04-28T18:33:14.834Z,18.22
2019-04-28T18:35:48.377Z,18.18
2019-04-28T18:38:34.376Z,18.17
2019-04-28T18:41:12.277Z,18.19
2019-04-28T18:43:45.886Z,18.09
2019-04-28T18:46:20.695Z,17.95
2019-04-28T18:48:52.329Z,17.86
2019-04-28T18:51:29.709Z,17.98
2019-04-28T18:54:02.642Z,17.90
2019-04-28T18:56:34.824Z,17.74
2019-04-28T18:59:06.777Z,17.66
2019-04-28T19:01:40.346Z,17.54
2019-04-28T19:04:12.136Z,17.52
2019-04-28T19:06:44.470Z,17.44
2019-04-28T19:09:33.058Z,17.34
2019-04-28T19:12:22.871Z,17.32
2019-04-28T19:14:59.317Z,17.23
2019-04-28T19:17:36.603Z,17.19
2019-04-28T19:20:08.869Z,17.12
2019-04-28T19:22:47.751Z,17.09
2019-04-28T19:25:19.560Z,17.04
2019-04-28T19:27:53.650Z,17.02
2019-04-28T19:30:27.391Z,16.99
2019-04-28T19:33:00.965Z,17.01
2019-04-28T19:35:32.510Z,16.92
2019-04-28T19:38:04.615Z,16.90
2019-04-28T19:40:36.870Z,16.92
2019-04-28T19:43:08.917Z,16.87
2019-04-28T19:45:43.668Z,16.86
2019-04-28T19:48:31.155Z,17.05
2019-04-28T19:51:03.039Z,17.18
2019-04-28T19:53:34.922Z,17.33
2019-04-28T19:56:10.461Z,17.40
2019-04-28T19:58:44.430Z,17.48
2019-04-28T20:01:28.552Z,17.57
2019-04-28T20:04:01.448Z,17.62
2019-04-28T20:06:34.086Z,17.66
2019-04-28T20:09:08.052Z,17.71
2019-04-28T20:11:40.590Z,17.70
2019-04-28T20:14:12.040Z,17.71
2019-04-28T20:16:43.807Z,17.63
2019-04-28T20:19:15.450Z,17.71
2019-04-28T20:21:47.336Z,17.71
2019-04-28T20:24:19.588Z,17.72
2019-04-28T20:26:53.186Z,17.65
2019-04-28T20:29:24.859Z,17.58
2019-04-28T20:31:57.745Z,17.52
2019-04-28T20:34:29.503Z,17.45
2019-04-28T20:37:06.520Z,17.41
2019-04-28T20:39:38.391Z,17.46
2019-04-28T20:42:11.738Z,17.41
2019-04-28T20:44:45.113Z,17.53
2019-04-28T20:47:16.986Z,17.44
2019-04-28T20:49:49.669Z,17.47
2019-04-28T20:52:21.347Z,17.32
2019-04-28T20:54:52.912Z,17.21
2019-04-28T20:57:26.994Z,17.18
2019-04-28T20:59:59.222Z,17.16
2019-04-28T21:02:31.277Z,17.21
2019-04-28T21:05:02.993Z,17.23
2019-04-28T21:07:35.746Z,17.13
2019-04-28T21:10:07.674Z,17.12
2019-04-28T21:12:40.110Z,17.01
2019-04-28T21:15:12.135Z,16.97
2019-04-28T21:17:43.899Z,16.87
2019-04-28T21:20:15.342Z,16.83
2019-04-28T21:22:48.414Z,16.85
2019-04-28T21:25:21.998Z,16.85
2019-04-28T21:27:55.067Z,16.82
2019-04-28T21:30:26.553Z,16.81
2019-04-28T21:33:00.481Z,16.81
2019-04-28T21:35:33.663Z,16.75
2019-04-28T21:38:05.380Z,16.75
2019-04-28T21:40:37.383Z,16.70
2019-04-28T21:43:16.720Z,16.65
2019-04-28T21:45:58.362Z,16.60
2019-04-28T21:48:38.183Z,16.59
2019-04-28T21:51:11.983Z,16.66
2019-04-28T21:53:43.887Z,16.67
2019-04-28T21:56:15.604Z,16.69
2019-04-28T21:58:47.411Z,16.72
2019-04-28T22:01:22.464Z,16.72
2019-04-28T22:03:54.122Z,16.69
2019-04-28T22:06:25.745Z,16.70
2019-04-28T22:08:57.514Z,16.66
2019-04-28T22:11:29.385Z,16.60
2019-04-28T22:14:00.885Z,16.59
2019-04-28T22:16:32.641Z,16.51
2019-04-28T22:19:04.500Z,16.55
2019-04-28T22:21:36.335Z,16.48
2019-04-28T22:24:19.082Z,16.51
2019-04-28T22:26:55.128Z,16.55
2019-04-28T22:29:27.361Z,16.48
2019-04-28T22:31:58.920Z,16.39
2019-04-28T22:34:31.522Z,16.42
2019-04-28T22:37:03.328Z,16.44
2019-04-28T22:39:34.927Z,16.47
2019-04-28T22:42:07.903Z,16.44
2019-04-28T22:44:39.514Z,16.41
2019-04-28T22:47:13.362Z,16.35
2019-04-28T22:49:45.227Z,16.26
2019-04-28T22:52:16.917Z,16.24
2019-04-28T22:54:50.174Z,16.18
2019-04-28T22:57:39.853Z,16.13
2019-04-28T23:00:18.973Z,16.14
2019-04-28T23:02:52.310Z,16.11
2019-04-28T23:05:24.195Z,16.14
2019-04-28T23:07:56.003Z,16.05
2019-04-28T23:10:27.799Z,15.99
2019-04-28T23:13:01.205Z,15.92
2019-04-28T23:15:33.258Z,15.88
2019-04-28T23:18:05.018Z,15.86
2019-04-28T23:20:38.391Z,15.88
2019-04-28T23:23:10.455Z,15.87
2019-04-28T23:25:42.026Z,15.81
2019-04-28T23:28:13.767Z,15.79
2019-04-28T23:30:46.572Z,15.77
2019-04-28T23:33:19.068Z,15.72
2019-04-28T23:35:52.035Z,15.62
2019-04-28T23:38:24.628Z,15.51
2019-04-28T23:41:07.584Z,15.32
2019-04-28T23:43:39.282Z,15.06
2019-04-28T23:46:11.034Z,14.94
2019-04-28T23:48:42.447Z,14.90
2019-04-28T23:51:31.796Z,14.88
2019-04-28T23:54:05.156Z,14.79
2019-04-28T23:56:36.903Z,14.80
2019-04-28T23:59:08.684Z,14.74
